sensor_id;sensor_type;location;lat;lon;timestamp;pressure;altitude;pressure_sealevel;temperature;humidity
7990;BME280;4040;42.848;23.034;2023-08-20T00:03:34;95164.16;;;16.80;100.00
7990;BME280;4040;42.848;23.034;2023-08-20T00:13:46;95159.13;;;16.66;100.00
7990;BME280;4040;42.848;23.034;2023-08-20T00:19:36;95154.88;;;16.65;100.00
7990;BME280;4040;42.848;23.034;2023-08-20T00:25:25;95153.47;;;16.61;100.00
7990;BME280;4040;42.848;23.034;2023-08-20T00:31:16;95162.13;;;16.27;100.00
7990;BME280;4040;42.848;23.034;2023-08-20T00:37:04;95165.22;;;15.97;100.00
7990;BME280;4040;42.848;23.034;2023-08-20T00:42:53;95157.59;;;15.92;100.00
7990;BME280;4040;42.848;23.034;2023-08-20T00:48:43;95162.66;;;16.06;100.00
7990;BME280;4040;42.848;23.034;2023-08-20T00:54:32;95165.81;;;16.05;100.00
7990;BME280;4040;42.848;23.034;2023-08-20T01:00:23;95155.38;;;15.87;100.00
7990;BME280;4040;42.848;23.034;2023-08-20T01:06:20;95162.28;;;15.76;100.00
7990;BME280;4040;42.848;23.034;2023-08-20T01:16:33;95157.59;;;15.44;100.00
7990;BME280;4040;42.848;23.034;2023-08-20T01:22:40;95158.88;;;15.40;100.00
7990;BME280;4040;42.848;23.034;2023-08-20T01:28:37;95153.38;;;15.43;100.00
7990;BME280;4040;42.848;23.034;2023-08-20T01:34:27;95151.66;;;15.65;100.00
7990;BME280;4040;42.848;23.034;2023-08-20T01:40:15;95144.72;;;15.80;100.00
7990;BME280;4040;42.848;23.034;2023-08-20T01:46:06;95135.88;;;15.76;100.00
7990;BME280;4040;42.848;23.034;2023-08-20T01:51:56;95137.06;;;15.75;100.00
7990;BME280;4040;42.848;23.034;2023-08-20T01:57:44;95150.81;;;15.84;100.00
7990;BME280;4040;42.848;23.034;2023-08-20T02:03:36;95148.59;;;15.95;100.00
7990;BME280;4040;42.848;23.034;2023-08-20T02:09:25;95141.25;;;16.08;100.00
7990;BME280;4040;42.848;23.034;2023-08-20T02:19:37;95149.25;;;16.15;100.00
7990;BME280;4040;42.848;23.034;2023-08-20T02:25:26;95150.44;;;16.14;100.00
7990;BME280;4040;42.848;23.034;2023-08-20T02:31:14;95139.66;;;16.11;100.00
7990;BME280;4040;42.848;23.034;2023-08-20T02:37:04;95149.94;;;16.03;100.00
7990;BME280;4040;42.848;23.034;2023-08-20T02:42:53;95157.91;;;16.10;100.00
7990;BME280;4040;42.848;23.034;2023-08-20T02:48:42;95147.13;;;16.07;100.00
7990;BME280;4040;42.848;23.034;2023-08-20T02:54:32;95148.91;;;15.97;100.00
7990;BME280;4040;42.848;23.034;2023-08-20T03:00:20;95141.31;;;15.92;100.00
7990;BME280;4040;42.848;23.034;2023-08-20T03:06:09;95143.50;;;15.97;100.00
7990;BME280;4040;42.848;23.034;2023-08-20T03:11:59;95147.88;;;16.07;100.00
7990;BME280;4040;42.848;23.034;2023-08-20T03:22:09;95147.03;;;16.10;100.00
7990;BME280;4040;42.848;23.034;2023-08-20T03:28:00;95146.69;;;16.08;100.00
7990;BME280;4040;42.848;23.034;2023-08-20T03:33:48;95141.97;;;15.96;100.00
7990;BME280;4040;42.848;23.034;2023-08-20T03:39:37;95140.53;;;15.92;100.00
7990;BME280;4040;42.848;23.034;2023-08-20T03:45:28;95129.50;;;15.99;100.00
7990;BME280;4040;42.848;23.034;2023-08-20T03:51:17;95128.72;;;15.98;100.00
7990;BME280;4040;42.848;23.034;2023-08-20T03:57:06;95131.75;;;16.00;100.00
7990;BME280;4040;42.848;23.034;2023-08-20T04:02:57;95136.34;;;16.03;100.00
7990;BME280;4040;42.848;23.034;2023-08-20T04:08:45;95130.94;;;16.03;100.00
7990;BME280;4040;42.848;23.034;2023-08-20T04:14:34;95136.84;;;16.14;100.00
7990;BME280;4040;42.848;23.034;2023-08-20T04:24:46;95141.81;;;16.32;100.00
7990;BME280;4040;42.848;23.034;2023-08-20T04:30:34;95139.41;;;16.34;100.00
7990;BME280;4040;42.848;23.034;2023-08-20T04:36:23;95141.00;;;16.47;100.00
7990;BME280;4040;42.848;23.034;2023-08-20T04:42:13;95146.97;;;16.71;100.00
7990;BME280;4040;42.848;23.034;2023-08-20T04:48:02;95149.56;;;17.40;100.00
7990;BME280;4040;42.848;23.034;2023-08-20T04:53:51;95152.53;;;18.38;100.00
7990;BME280;4040;42.848;23.034;2023-08-20T04:59:42;95137.19;;;18.75;100.00
7990;BME280;4040;42.848;23.034;2023-08-20T05:05:32;95140.63;;;19.97;100.00
7990;BME280;4040;42.848;23.034;2023-08-20T05:11:21;95132.91;;;20.59;100.00
7990;BME280;4040;42.848;23.034;2023-08-20T05:17:11;95135.19;;;21.46;100.00
7990;BME280;4040;42.848;23.034;2023-08-20T05:27:22;95142.19;;;20.79;100.00
7990;BME280;4040;42.848;23.034;2023-08-20T05:33:12;95140.97;;;21.39;100.00
7990;BME280;4040;42.848;23.034;2023-08-20T05:39:01;95143.25;;;20.55;100.00
7990;BME280;4040;42.848;23.034;2023-08-20T05:44:50;95149.34;;;20.59;100.00
7990;BME280;4040;42.848;23.034;2023-08-20T05:50:41;95141.41;;;20.78;100.00
7990;BME280;4040;42.848;23.034;2023-08-20T05:56:29;95145.88;;;22.47;100.00
7990;BME280;4040;42.848;23.034;2023-08-20T06:02:18;95157.22;;;21.93;100.00
7990;BME280;4040;42.848;23.034;2023-08-20T06:08:08;95156.88;;;22.47;100.00
7990;BME280;4040;42.848;23.034;2023-08-20T06:13:57;95159.59;;;23.72;100.00
7990;BME280;4040;42.848;23.034;2023-08-20T06:19:45;95150.63;;;26.35;100.00
7990;BME280;4040;42.848;23.034;2023-08-20T06:29:57;95147.81;;;23.37;100.00
7990;BME280;4040;42.848;23.034;2023-08-20T06:35:46;95151.53;;;23.34;100.00
7990;BME280;4040;42.848;23.034;2023-08-20T06:41:35;95149.03;;;23.51;100.00
7990;BME280;4040;42.848;23.034;2023-08-20T06:47:25;95152.94;;;23.44;100.00
7990;BME280;4040;42.848;23.034;2023-08-20T06:53:14;95161.97;;;24.68;100.00
7990;BME280;4040;42.848;23.034;2023-08-20T06:59:03;95160.31;;;25.52;100.00
7990;BME280;4040;42.848;23.034;2023-08-20T07:04:53;95163.03;;;25.78;100.00
7990;BME280;4040;42.848;23.034;2023-08-20T07:10:42;95161.69;;;25.37;100.00
7990;BME280;4040;42.848;23.034;2023-08-20T07:16:31;95160.84;;;25.51;100.00
7990;BME280;4040;42.848;23.034;2023-08-20T07:22:21;95166.53;;;25.73;100.00
7990;BME280;4040;42.848;23.034;2023-08-20T07:32:31;95169.03;;;27.13;100.00
7990;BME280;4040;42.848;23.034;2023-08-20T07:38:22;95168.31;;;27.56;97.99
7990;BME280;4040;42.848;23.034;2023-08-20T07:44:11;95169.59;;;27.44;87.20
7990;BME280;4040;42.848;23.034;2023-08-20T07:49:59;95171.75;;;26.96;89.40
7990;BME280;4040;42.848;23.034;2023-08-20T07:55:50;95160.63;;;29.93;69.98
7990;BME280;4040;42.848;23.034;2023-08-20T08:01:38;95159.78;;;34.37;49.17
7990;BME280;4040;42.848;23.034;2023-08-20T08:07:26;95159.66;;;32.24;56.61
7990;BME280;4040;42.848;23.034;2023-08-20T08:13:18;95153.25;;;31.16;61.20
7990;BME280;4040;42.848;23.034;2023-08-20T08:19:07;95143.63;;;34.71;54.15
7990;BME280;4040;42.848;23.034;2023-08-20T08:24:56;95140.31;;;34.80;49.80
7990;BME280;4040;42.848;23.034;2023-08-20T08:35:09;95142.66;;;35.04;46.88
7990;BME280;4040;42.848;23.034;2023-08-20T08:40:57;95137.28;;;34.22;51.96
7990;BME280;4040;42.848;23.034;2023-08-20T08:46:49;95136.31;;;35.54;48.40
7990;BME280;4040;42.848;23.034;2023-08-20T08:52:41;95139.84;;;36.97;43.04
7990;BME280;4040;42.848;23.034;2023-08-20T08:58:30;95139.22;;;36.21;35.14
7990;BME280;4040;42.848;23.034;2023-08-20T09:04:19;95132.59;;;34.73;39.78
7990;BME280;4040;42.848;23.034;2023-08-20T09:10:09;95127.31;;;33.52;38.40
7990;BME280;4040;42.848;23.034;2023-08-20T09:15:58;95142.72;;;32.22;41.18
7990;BME280;4040;42.848;23.034;2023-08-20T09:21:47;95128.19;;;31.16;41.82
7990;BME280;4040;42.848;23.034;2023-08-20T09:27:40;95136.81;;;31.12;42.79
7990;BME280;4040;42.848;23.034;2023-08-20T09:37:51;95137.72;;;33.18;38.67
7990;BME280;4040;42.848;23.034;2023-08-20T09:43:43;95131.09;;;35.08;38.17
7990;BME280;4040;42.848;23.034;2023-08-20T09:49:36;95122.16;;;36.57;34.11
7990;BME280;4040;42.848;23.034;2023-08-20T09:55:30;95130.81;;;36.29;34.67
7990;BME280;4040;42.848;23.034;2023-08-20T10:01:23;95119.53;;;37.92;33.50
7990;BME280;4040;42.848;23.034;2023-08-20T10:07:13;95118.06;;;36.43;33.85
7990;BME280;4040;42.848;23.034;2023-08-20T10:13:02;95120.63;;;36.78;34.48
7990;BME280;4040;42.848;23.034;2023-08-20T10:18:52;95139.56;;;35.73;33.69
7990;BME280;4040;42.848;23.034;2023-08-20T10:24:47;95120.13;;;35.90;34.17
7990;BME280;4040;42.848;23.034;2023-08-20T10:30:37;95117.53;;;38.10;31.80
7990;BME280;4040;42.848;23.034;2023-08-20T10:40:59;95106.28;;;35.84;32.98
7990;BME280;4040;42.848;23.034;2023-08-20T10:46:50;95087.72;;;35.59;33.44
7990;BME280;4040;42.848;23.034;2023-08-20T10:52:39;95104.03;;;35.68;34.47
7990;BME280;4040;42.848;23.034;2023-08-20T10:58:32;95097.03;;;34.81;36.04
7990;BME280;4040;42.848;23.034;2023-08-20T11:04:21;95091.88;;;32.80;36.68
7990;BME280;4040;42.848;23.034;2023-08-20T11:10:11;95103.09;;;32.10;37.60
7990;BME280;4040;42.848;23.034;2023-08-20T11:16:03;95081.09;;;31.81;38.75
7990;BME280;4040;42.848;23.034;2023-08-20T11:21:53;95101.69;;;31.91;38.12
7990;BME280;4040;42.848;23.034;2023-08-20T11:27:42;95087.00;;;31.27;37.99
7990;BME280;4040;42.848;23.034;2023-08-20T11:33:32;95093.94;;;31.71;38.44
7990;BME280;4040;42.848;23.034;2023-08-20T11:43:45;95082.03;;;31.70;38.01
7990;BME280;4040;42.848;23.034;2023-08-20T11:49:35;95085.38;;;31.69;38.35
7990;BME280;4040;42.848;23.034;2023-08-20T11:52:03;95080.97;;;31.73;38.62
7990;BME280;4040;42.848;23.034;2023-08-20T11:57:52;95089.44;;;31.68;38.79
7990;BME280;4040;42.848;23.034;2023-08-20T12:03:43;95070.75;;;31.63;39.23
7990;BME280;4040;42.848;23.034;2023-08-20T12:09:33;95056.75;;;31.37;38.16
7990;BME280;4040;42.848;23.034;2023-08-20T12:15:23;95059.97;;;31.41;38.01
7990;BME280;4040;42.848;23.034;2023-08-20T12:21:12;95059.19;;;31.59;38.18
7990;BME280;4040;42.848;23.034;2023-08-20T12:27:02;95051.41;;;31.39;37.56
7990;BME280;4040;42.848;23.034;2023-08-20T12:32:51;95052.69;;;31.38;39.19
7990;BME280;4040;42.848;23.034;2023-08-20T12:38:40;95051.28;;;31.76;37.45
7990;BME280;4040;42.848;23.034;2023-08-20T12:44:30;95047.41;;;31.66;38.00
7990;BME280;4040;42.848;23.034;2023-08-20T12:50:19;95035.63;;;31.60;37.60
7990;BME280;4040;42.848;23.034;2023-08-20T12:56:07;95036.44;;;31.55;38.70
7990;BME280;4040;42.848;23.034;2023-08-20T13:01:58;95026.69;;;31.48;38.63
7990;BME280;4040;42.848;23.034;2023-08-20T13:07:47;95032.41;;;31.56;38.77
7990;BME280;4040;42.848;23.034;2023-08-20T13:13:37;95033.66;;;31.55;37.73
7990;BME280;4040;42.848;23.034;2023-08-20T13:19:27;95038.66;;;31.30;39.59
7990;BME280;4040;42.848;23.034;2023-08-20T13:25:16;95023.75;;;31.28;40.21
7990;BME280;4040;42.848;23.034;2023-08-20T13:31:05;95030.53;;;31.32;37.52
7990;BME280;4040;42.848;23.034;2023-08-20T13:36:55;95021.66;;;31.47;40.75
7990;BME280;4040;42.848;23.034;2023-08-20T13:42:44;95028.09;;;31.55;39.33
7990;BME280;4040;42.848;23.034;2023-08-20T13:48:33;95035.28;;;31.50;38.56
7990;BME280;4040;42.848;23.034;2023-08-20T13:54:23;95018.38;;;31.61;39.16
7990;BME280;4040;42.848;23.034;2023-08-20T13:56:50;95030.25;;;31.62;38.22
7990;BME280;4040;42.848;23.034;2023-08-20T14:02:39;95024.06;;;31.56;38.17
7990;BME280;4040;42.848;23.034;2023-08-20T14:08:27;95024.88;;;31.51;40.02
7990;BME280;4040;42.848;23.034;2023-08-20T14:14:18;95028.28;;;31.44;40.49
7990;BME280;4040;42.848;23.034;2023-08-20T14:20:07;95013.38;;;31.10;40.92
7990;BME280;4040;42.848;23.034;2023-08-20T14:25:58;95023.19;;;31.16;41.00
7990;BME280;4040;42.848;23.034;2023-08-20T14:31:48;95020.03;;;31.07;40.60
7990;BME280;4040;42.848;23.034;2023-08-20T14:34:15;95041.25;;;30.91;41.04
7990;BME280;4040;42.848;23.034;2023-08-20T14:40:05;95041.28;;;30.73;41.00
7990;BME280;4040;42.848;23.034;2023-08-20T14:45:54;95040.06;;;30.68;41.90
7990;BME280;4040;42.848;23.034;2023-08-20T14:51:44;95049.69;;;30.67;40.23
7990;BME280;4040;42.848;23.034;2023-08-20T14:57:33;95046.22;;;30.61;41.76
7990;BME280;4040;42.848;23.034;2023-08-20T15:03:22;95047.09;;;30.51;42.07
7990;BME280;4040;42.848;23.034;2023-08-20T15:09:12;95058.66;;;30.55;42.42
7990;BME280;4040;42.848;23.034;2023-08-20T15:15:03;95052.13;;;30.34;42.64
7990;BME280;4040;42.848;23.034;2023-08-20T15:20:55;95055.19;;;30.30;42.18
7990;BME280;4040;42.848;23.034;2023-08-20T15:26:46;95057.66;;;30.34;42.45
7990;BME280;4040;42.848;23.034;2023-08-20T15:32:34;95054.09;;;30.15;44.03
7990;BME280;4040;42.848;23.034;2023-08-20T15:38:23;95061.28;;;30.05;42.51
7990;BME280;4040;42.848;23.034;2023-08-20T15:44:13;95053.75;;;30.00;44.42
7990;BME280;4040;42.848;23.034;2023-08-20T15:50:02;95054.16;;;29.85;44.34
7990;BME280;4040;42.848;23.034;2023-08-20T15:55:51;95049.09;;;29.60;45.19
7990;BME280;4040;42.848;23.034;2023-08-20T16:01:41;95049.75;;;29.42;46.70
7990;BME280;4040;42.848;23.034;2023-08-20T16:07:30;95060.47;;;29.27;46.98
7990;BME280;4040;42.848;23.034;2023-08-20T16:13:18;95056.91;;;28.97;48.08
7990;BME280;4040;42.848;23.034;2023-08-20T16:19:09;95055.75;;;28.76;48.32
7990;BME280;4040;42.848;23.034;2023-08-20T16:24:57;95067.34;;;28.75;48.04
7990;BME280;4040;42.848;23.034;2023-08-20T16:30:46;95073.78;;;28.53;49.19
7990;BME280;4040;42.848;23.034;2023-08-20T16:36:36;95081.16;;;28.34;50.50
7990;BME280;4040;42.848;23.034;2023-08-20T16:46:47;95076.69;;;28.09;50.68
7990;BME280;4040;42.848;23.034;2023-08-20T16:49:14;95085.25;;;28.11;51.67
7990;BME280;4040;42.848;23.034;2023-08-20T16:55:05;95089.31;;;27.88;51.91
7990;BME280;4040;42.848;23.034;2023-08-20T17:00:54;95087.81;;;27.65;52.88
7990;BME280;4040;42.848;23.034;2023-08-20T17:06:43;95094.88;;;27.44;53.40
7990;BME280;4040;42.848;23.034;2023-08-20T17:12:33;95095.91;;;27.19;54.20
7990;BME280;4040;42.848;23.034;2023-08-20T17:18:21;95097.88;;;27.13;54.31
7990;BME280;4040;42.848;23.034;2023-08-20T17:24:10;95103.84;;;26.95;55.77
7990;BME280;4040;42.848;23.034;2023-08-20T17:30:00;95112.63;;;26.72;56.34
7990;BME280;4040;42.848;23.034;2023-08-20T17:35:51;95115.38;;;26.72;55.98
7990;BME280;4040;42.848;23.034;2023-08-20T17:41:40;95117.06;;;26.53;56.70
7990;BME280;4040;42.848;23.034;2023-08-20T17:47:30;95118.25;;;26.36;57.71
7990;BME280;4040;42.848;23.034;2023-08-20T17:53:23;95121.25;;;26.38;57.10
7990;BME280;4040;42.848;23.034;2023-08-20T17:59:13;95125.91;;;26.15;58.29
7990;BME280;4040;42.848;23.034;2023-08-20T18:05:04;95133.94;;;25.77;60.68
7990;BME280;4040;42.848;23.034;2023-08-20T18:10:53;95140.41;;;25.68;60.43
7990;BME280;4040;42.848;23.034;2023-08-20T18:16:42;95148.53;;;25.83;60.63
7990;BME280;4040;42.848;23.034;2023-08-20T18:22:33;95153.50;;;25.48;62.29
7990;BME280;4040;42.848;23.034;2023-08-20T18:28:22;95158.97;;;25.42;62.31
7990;BME280;4040;42.848;23.034;2023-08-20T18:34:11;95147.66;;;25.35;61.96
7990;BME280;4040;42.848;23.034;2023-08-20T18:40:01;95153.28;;;25.20;62.94
7990;BME280;4040;42.848;23.034;2023-08-20T18:50:12;95170.25;;;24.68;68.86
7990;BME280;4040;42.848;23.034;2023-08-20T18:56:03;95172.28;;;23.98;79.12
7990;BME280;4040;42.848;23.034;2023-08-20T19:01:52;95190.38;;;23.56;88.88
7990;BME280;4040;42.848;23.034;2023-08-20T19:07:40;95190.19;;;23.31;97.26
7990;BME280;4040;42.848;23.034;2023-08-20T19:13:35;95197.78;;;22.83;100.00
7990;BME280;4040;42.848;23.034;2023-08-20T19:19:25;95197.69;;;22.78;100.00
7990;BME280;4040;42.848;23.034;2023-08-20T19:25:14;95213.75;;;22.70;100.00
7990;BME280;4040;42.848;23.034;2023-08-20T19:31:03;95218.72;;;22.34;100.00
7990;BME280;4040;42.848;23.034;2023-08-20T19:36:52;95230.03;;;21.94;100.00
7990;BME280;4040;42.848;23.034;2023-08-20T19:42:41;95221.59;;;21.74;100.00
7990;BME280;4040;42.848;23.034;2023-08-20T19:52:55;95216.22;;;21.20;100.00
7990;BME280;4040;42.848;23.034;2023-08-20T19:58:44;95227.53;;;21.13;100.00
7990;BME280;4040;42.848;23.034;2023-08-20T20:04:33;95237.25;;;20.87;100.00
7990;BME280;4040;42.848;23.034;2023-08-20T20:10:23;95239.97;;;20.78;100.00
7990;BME280;4040;42.848;23.034;2023-08-20T20:16:12;95249.72;;;20.71;100.00
7990;BME280;4040;42.848;23.034;2023-08-20T20:22:00;95217.44;;;20.57;100.00
7990;BME280;4040;42.848;23.034;2023-08-20T20:27:50;95202.25;;;20.29;100.00
7990;BME280;4040;42.848;23.034;2023-08-20T20:33:39;95234.16;;;20.32;100.00
7990;BME280;4040;42.848;23.034;2023-08-20T20:39:28;95239.91;;;20.25;100.00
7990;BME280;4040;42.848;23.034;2023-08-20T20:45:18;95237.44;;;20.09;100.00
7990;BME280;4040;42.848;23.034;2023-08-20T20:55:29;95241.34;;;19.99;100.00
7990;BME280;4040;42.848;23.034;2023-08-20T21:01:20;95244.38;;;20.01;100.00
7990;BME280;4040;42.848;23.034;2023-08-20T21:07:08;95240.38;;;19.93;100.00
7990;BME280;4040;42.848;23.034;2023-08-20T21:12:57;95250.06;;;19.85;100.00
7990;BME280;4040;42.848;23.034;2023-08-20T21:18:47;95247.94;;;19.80;100.00
7990;BME280;4040;42.848;23.034;2023-08-20T21:24:36;95243.81;;;19.75;100.00
7990;BME280;4040;42.848;23.034;2023-08-20T21:30:24;95258.53;;;19.69;100.00
7990;BME280;4040;42.848;23.034;2023-08-20T21:36:14;95251.31;;;19.32;100.00
7990;BME280;4040;42.848;23.034;2023-08-20T21:42:03;95264.91;;;19.23;100.00
7990;BME280;4040;42.848;23.034;2023-08-20T21:47:52;95266.44;;;19.24;100.00
7990;BME280;4040;42.848;23.034;2023-08-20T21:58:04;95278.00;;;19.28;100.00
7990;BME280;4040;42.848;23.034;2023-08-20T22:08:33;95281.47;;;19.07;100.00
7990;BME280;4040;42.848;23.034;2023-08-20T22:14:21;95285.41;;;19.06;100.00
7990;BME280;4040;42.848;23.034;2023-08-20T22:20:11;95278.03;;;18.94;100.00
7990;BME280;4040;42.848;23.034;2023-08-20T22:26:02;95279.25;;;18.93;100.00
7990;BME280;4040;42.848;23.034;2023-08-20T22:31:50;95281.25;;;18.80;100.00
7990;BME280;4040;42.848;23.034;2023-08-20T22:37:39;95275.41;;;18.69;100.00
7990;BME280;4040;42.848;23.034;2023-08-20T22:43:31;95263.19;;;18.61;100.00
7990;BME280;4040;42.848;23.034;2023-08-20T22:49:19;95281.13;;;18.62;100.00
7990;BME280;4040;42.848;23.034;2023-08-20T22:55:08;95273.47;;;18.57;100.00
7990;BME280;4040;42.848;23.034;2023-08-20T23:01:00;95270.44;;;18.55;100.00
7990;BME280;4040;42.848;23.034;2023-08-20T23:03:27;95272.72;;;18.56;100.00
7990;BME280;4040;42.848;23.034;2023-08-20T23:09:15;95273.84;;;18.46;100.00
7990;BME280;4040;42.848;23.034;2023-08-20T23:15:05;95270.75;;;18.44;100.00
7990;BME280;4040;42.848;23.034;2023-08-20T23:21:00;95283.34;;;18.42;100.00
7990;BME280;4040;42.848;23.034;2023-08-20T23:26:48;95278.00;;;18.38;100.00
7990;BME280;4040;42.848;23.034;2023-08-20T23:32:37;95282.56;;;18.29;100.00
7990;BME280;4040;42.848;23.034;2023-08-20T23:38:27;95269.47;;;18.24;100.00
7990;BME280;4040;42.848;23.034;2023-08-20T23:44:16;95266.09;;;18.32;100.00
7990;BME280;4040;42.848;23.034;2023-08-20T23:50:06;95265.44;;;18.16;100.00
7990;BME280;4040;42.848;23.034;2023-08-20T23:55:57;95261.78;;;18.10;100.00
